createdAt,value
2023-01-23T00:01:41.701Z,5.65
2023-01-23T00:04:13.986Z,5.97
2023-01-23T00:06:42.406Z,5.82
2023-01-23T00:09:11.382Z,6.45
2023-01-23T00:11:39.761Z,4.25
2023-01-23T00:14:07.984Z,5.82
2023-01-23T00:16:37.775Z,5.43
2023-01-23T00:19:06.530Z,4.72
2023-01-23T00:21:34.844Z,5.07
2023-01-23T00:24:03.390Z,5.18
2023-01-23T00:26:34.078Z,3.05
2023-01-23T00:29:03.544Z,3.97
2023-01-23T00:31:34.246Z,3.78
2023-01-23T00:34:06.119Z,4.70
2023-01-23T00:36:36.536Z,4.93
2023-01-23T00:39:07.557Z,6.53
2023-01-23T00:41:36.545Z,6.03
2023-01-23T00:44:06.239Z,9.68
2023-01-23T00:46:35.114Z,5.60
2023-01-23T00:49:05.344Z,5.50
2023-01-23T00:51:34.205Z,5.68
2023-01-23T00:54:02.980Z,7.07
2023-01-23T00:56:31.585Z,4.80
2023-01-23T00:58:59.941Z,4.82
2023-01-23T01:01:29.167Z,6.30
2023-01-23T01:03:57.571Z,5.30
2023-01-23T01:06:27.361Z,6.07
2023-01-23T01:08:57.570Z,7.63
2023-01-23T01:11:26.314Z,5.18
2023-01-23T01:13:54.854Z,4.32
2023-01-23T01:16:24.458Z,5.80
2023-01-23T01:18:53.231Z,3.90
2023-01-23T01:21:22.583Z,6.13
2023-01-23T01:23:52.642Z,4.80
2023-01-23T01:26:23.110Z,6.07
2023-01-23T01:28:52.060Z,4.20
2023-01-23T01:31:20.631Z,5.93
2023-01-23T01:33:50.622Z,6.15
2023-01-23T01:36:23.125Z,4.88
2023-01-23T01:38:52.957Z,3.67
2023-01-23T01:41:21.321Z,6.05
2023-01-23T01:43:49.760Z,4.95
2023-01-23T01:46:23.462Z,4.55
2023-01-23T01:49:00.837Z,3.83
2023-01-23T01:51:33.109Z,6.47
2023-01-23T01:54:09.073Z,3.08
2023-01-23T01:56:42.560Z,4.57
2023-01-23T01:59:12.643Z,5.15
2023-01-23T02:01:44.392Z,6.20
2023-01-23T02:04:12.948Z,6.28
2023-01-23T02:06:41.943Z,5.03
2023-01-23T02:09:16.576Z,4.85
2023-01-23T02:11:45.403Z,5.50
2023-01-23T02:14:14.641Z,5.85
2023-01-23T02:16:50.620Z,4.55
2023-01-23T02:19:32.233Z,4.53
2023-01-23T02:22:08.781Z,6.32
2023-01-23T02:24:45.128Z,6.18
2023-01-23T02:27:14.993Z,5.68
2023-01-23T02:29:45.860Z,5.60
2023-01-23T02:32:15.754Z,4.15
2023-01-23T02:34:45.036Z,5.70
2023-01-23T02:37:14.648Z,5.03
2023-01-23T02:39:43.196Z,4.47
2023-01-23T02:42:15.243Z,5.50
2023-01-23T02:44:48.633Z,4.43
2023-01-23T02:47:19.476Z,3.80
2023-01-23T02:49:47.776Z,5.70
2023-01-23T02:52:16.492Z,5.07
2023-01-23T02:54:44.904Z,7.82
2023-01-23T02:57:15.512Z,5.38
2023-01-23T03:00:01.557Z,4.30
2023-01-23T03:02:30.752Z,5.55
2023-01-23T03:04:59.096Z,4.90
2023-01-23T03:07:30.003Z,5.32
2023-01-23T03:09:58.360Z,6.30
2023-01-23T03:12:28.432Z,6.07
2023-01-23T03:14:58.088Z,5.60
2023-01-23T03:17:26.674Z,6.72
2023-01-23T03:19:55.677Z,4.75
2023-01-23T03:22:24.047Z,6.20
2023-01-23T03:24:52.410Z,5.20
2023-01-23T03:27:20.838Z,7.05
2023-01-23T03:30:12.332Z,5.90
2023-01-23T03:32:42.225Z,5.78
2023-01-23T03:35:14.106Z,4.75
2023-01-23T03:37:42.819Z,6.32
2023-01-23T03:40:35.433Z,5.25
2023-01-23T03:43:05.379Z,5.57
2023-01-23T03:45:37.603Z,5.93
2023-01-23T03:48:06.541Z,5.45
2023-01-23T03:50:35.642Z,7.22
2023-01-23T03:53:04.062Z,6.57
2023-01-23T03:55:32.737Z,5.63
2023-01-23T03:58:01.130Z,4.20
2023-01-23T04:00:32.055Z,4.75
2023-01-23T04:03:06.924Z,4.25
2023-01-23T04:05:35.653Z,5.72
2023-01-23T04:08:04.908Z,6.07
2023-01-23T04:10:33.718Z,5.88
2023-01-23T04:13:06.690Z,6.18
2023-01-23T04:15:35.503Z,4.90
2023-01-23T04:18:09.063Z,5.25
2023-01-23T04:20:37.526Z,6.05
2023-01-23T04:23:07.211Z,5.68
2023-01-23T04:25:35.847Z,4.93
2023-01-23T04:28:05.627Z,5.40
2023-01-23T04:30:34.703Z,5.65
2023-01-23T04:33:12.689Z,6.22
2023-01-23T04:35:41.309Z,6.47
2023-01-23T04:38:09.644Z,5.90
2023-01-23T04:40:39.613Z,5.80
2023-01-23T04:43:08.044Z,7.05
2023-01-23T04:45:52.448Z,6.97
2023-01-23T04:48:41.373Z,6.47
2023-01-23T04:51:10.597Z,7.28
2023-01-23T04:53:39.537Z,7.57
2023-01-23T04:56:09.541Z,6.05
2023-01-23T04:58:38.776Z,6.57
2023-01-23T05:01:09.079Z,5.32
2023-01-23T05:03:40.598Z,6.20
2023-01-23T05:06:09.462Z,6.55
2023-01-23T05:08:37.844Z,5.38
2023-01-23T05:11:28.155Z,7.38
2023-01-23T05:13:56.779Z,4.85
2023-01-23T05:16:26.328Z,5.32
2023-01-23T05:19:28.355Z,5.18
2023-01-23T05:21:58.445Z,4.70
2023-01-23T05:24:27.846Z,5.07
2023-01-23T05:26:58.148Z,5.93
2023-01-23T05:29:29.894Z,5.93
2023-01-23T05:32:21.291Z,6.65
2023-01-23T05:34:59.275Z,5.20
2023-01-23T05:37:31.061Z,5.18
2023-01-23T05:40:08.782Z,5.35
2023-01-23T05:43:11.303Z,5.10
2023-01-23T05:45:54.668Z,4.88
2023-01-23T05:48:33.002Z,5.13
2023-01-23T05:51:05.801Z,5.25
2023-01-23T05:53:35.513Z,5.10
2023-01-23T05:56:07.471Z,8.43
2023-01-23T05:58:42.271Z,6.72
2023-01-23T06:01:20.855Z,6.28
2023-01-23T06:04:09.959Z,5.30
2023-01-23T06:06:54.485Z,5.65
2023-01-23T06:09:22.929Z,6.22
2023-01-23T06:11:51.436Z,5.85
2023-01-23T06:14:20.165Z,5.30
2023-01-23T06:16:48.805Z,5.45
2023-01-23T06:19:17.420Z,3.88
2023-01-23T06:21:45.881Z,5.40
2023-01-23T06:24:16.256Z,6.63
2023-01-23T06:26:44.895Z,7.15
2023-01-23T06:29:14.349Z,6.10
2023-01-23T06:31:42.902Z,6.35
2023-01-23T06:34:11.411Z,5.63
2023-01-23T06:36:46.485Z,5.35
2023-01-23T06:39:16.792Z,6.00
2023-01-23T06:41:45.850Z,5.90
2023-01-23T06:44:19.927Z,5.68
2023-01-23T06:46:48.538Z,6.65
2023-01-23T06:49:16.967Z,5.40
2023-01-23T06:51:45.668Z,4.47
2023-01-23T06:54:15.990Z,5.20
2023-01-23T06:56:45.660Z,4.45
2023-01-23T06:59:14.391Z,4.43
2023-01-23T07:01:44.020Z,5.72
2023-01-23T07:04:25.807Z,5.15
2023-01-23T07:06:54.124Z,4.07
2023-01-23T07:09:24.001Z,3.90
2023-01-23T07:12:01.991Z,4.38
2023-01-23T07:14:32.810Z,5.65
2023-01-23T07:17:01.379Z,5.55
2023-01-23T07:19:30.057Z,4.22
2023-01-23T07:22:01.296Z,6.38
2023-01-23T07:24:32.576Z,5.43
2023-01-23T07:27:00.992Z,5.85
2023-01-23T07:29:29.316Z,4.95
2023-01-23T07:32:01.008Z,4.95
2023-01-23T07:34:29.805Z,4.90
2023-01-23T07:36:58.083Z,5.10
2023-01-23T07:39:26.801Z,6.75
2023-01-23T07:41:56.753Z,4.80
2023-01-23T07:44:29.533Z,6.10
2023-01-23T07:46:58.284Z,5.88
2023-01-23T07:49:26.678Z,7.68
2023-01-23T07:51:55.156Z,6.88
2023-01-23T07:54:23.514Z,4.70
2023-01-23T07:56:51.925Z,6.57
2023-01-23T07:59:21.607Z,4.85
2023-01-23T08:01:51.473Z,6.55
2023-01-23T08:04:19.772Z,5.53
2023-01-23T08:06:48.123Z,7.28
2023-01-23T08:09:16.555Z,5.35
2023-01-23T08:11:44.944Z,6.28
2023-01-23T08:14:13.365Z,5.68
2023-01-23T08:16:43.109Z,6.85
2023-01-23T08:19:11.572Z,7.35
2023-01-23T08:21:39.875Z,8.10
2023-01-23T08:24:08.836Z,6.50
2023-01-23T08:26:37.232Z,7.50
2023-01-23T08:29:05.958Z,5.18
2023-01-23T08:31:34.404Z,5.30
2023-01-23T08:34:04.196Z,8.20
2023-01-23T08:36:32.718Z,6.60
2023-01-23T08:39:01.288Z,7.25
2023-01-23T08:41:29.686Z,8.20
2023-01-23T08:44:01.789Z,7.20
2023-01-23T08:46:30.493Z,7.35
2023-01-23T08:48:58.730Z,7.28
2023-01-23T08:51:28.796Z,8.73
2023-01-23T08:53:57.225Z,8.65
2023-01-23T08:56:28.720Z,6.50
2023-01-23T09:48:01.022Z,6.72
2023-01-23T09:52:39.405Z,6.28
2023-01-23T11:15:50.346Z,2.83
2023-01-23T11:18:32.447Z,3.25
2023-01-23T11:21:01.226Z,3.58
2023-01-23T11:23:32.593Z,6.25
2023-01-23T11:26:04.318Z,3.25
2023-01-23T11:28:47.272Z,2.20
2023-01-23T11:31:19.077Z,3.20
2023-01-23T11:33:54.381Z,2.97
2023-01-23T11:36:39.810Z,3.30
2023-01-23T11:39:18.193Z,1.92
2023-01-23T11:41:48.617Z,2.53
2023-01-23T11:44:22.636Z,2.75
2023-01-23T11:47:21.549Z,2.33
2023-01-23T11:50:09.650Z,1.60
2023-01-23T11:52:49.611Z,2.08
2023-01-23T11:55:35.319Z,1.83
2023-01-23T11:58:14.844Z,1.85
2023-01-23T12:00:48.408Z,2.88
2023-01-23T12:04:08.345Z,1.70
2023-01-23T12:06:44.282Z,2.10
2023-01-23T12:09:16.716Z,2.22
2023-01-23T12:12:02.326Z,1.52
2023-01-23T12:14:40.250Z,1.73
2023-01-23T12:17:23.439Z,2.78
2023-01-23T12:20:04.523Z,2.40
2023-01-23T12:22:45.955Z,2.42
2023-01-23T12:25:27.544Z,3.10
2023-01-23T12:28:02.220Z,1.88
2023-01-23T12:31:03.975Z,1.38
2023-01-23T12:33:50.043Z,2.75
2023-01-23T12:36:59.583Z,2.13
2023-01-23T12:39:46.871Z,2.08
2023-01-23T12:42:22.672Z,2.53
2023-01-23T12:44:59.738Z,2.28
2023-01-23T12:47:32.992Z,2.00
2023-01-23T12:50:08.240Z,2.35
2023-01-23T12:52:42.404Z,2.60
2023-01-23T12:55:20.681Z,3.42
2023-01-23T12:58:07.079Z,2.60
2023-01-23T13:00:50.798Z,2.30
2023-01-23T13:03:37.527Z,3.15
2023-01-23T13:06:30.666Z,1.92
2023-01-23T13:09:17.835Z,3.13
2023-01-23T13:11:56.435Z,2.95
2023-01-23T13:14:32.833Z,3.88
2023-01-23T13:17:05.225Z,3.50
2023-01-23T13:19:58.899Z,2.65
2023-01-23T13:22:33.980Z,2.17
2023-01-23T13:25:18.178Z,3.30
2023-01-23T13:27:51.751Z,2.40
2023-01-23T13:30:40.469Z,3.72
2023-01-23T13:33:52.856Z,4.60
2023-01-23T13:36:31.159Z,3.70
2023-01-23T13:39:25.862Z,4.00
2023-01-23T13:42:46.239Z,3.45
2023-01-23T13:45:37.334Z,3.88
2023-01-23T14:23:02.872Z,4.78
2023-01-23T14:25:32.546Z,4.00
2023-01-23T14:28:05.177Z,5.53
2023-01-23T14:33:01.600Z,4.45
2023-01-23T14:35:33.402Z,6.00
2023-01-23T14:38:06.309Z,4.78
2023-01-23T14:40:49.381Z,4.93
2023-01-23T14:43:22.290Z,4.60
2023-01-23T14:45:58.456Z,6.43
2023-01-23T14:48:26.857Z,5.03
2023-01-23T14:51:15.108Z,6.07
2023-01-23T14:53:43.479Z,5.65
2023-01-23T14:56:13.388Z,4.55
2023-01-23T14:58:42.703Z,5.18
2023-01-23T15:01:12.504Z,4.88
2023-01-23T15:03:43.733Z,3.97
2023-01-23T15:06:16.899Z,4.30
2023-01-23T15:08:45.708Z,3.67
2023-01-23T15:11:14.562Z,3.13
2023-01-23T15:13:47.027Z,4.28
2023-01-23T15:16:22.145Z,3.40
2023-01-23T15:19:01.621Z,3.42
2023-01-23T15:21:34.325Z,3.55
2023-01-23T15:24:24.623Z,4.22
2023-01-23T15:27:06.015Z,3.33
2023-01-23T15:29:38.266Z,2.47
2023-01-23T15:32:21.248Z,3.60
2023-01-23T15:34:57.799Z,2.67
2023-01-23T15:37:29.195Z,3.58
2023-01-23T15:40:02.190Z,3.17
2023-01-23T15:42:37.126Z,3.42
2023-01-23T15:45:14.543Z,4.43
2023-01-23T15:47:42.905Z,3.15
2023-01-23T15:50:14.425Z,2.92
2023-01-23T15:52:52.251Z,3.53
2023-01-23T15:55:22.279Z,3.38
2023-01-23T15:57:52.262Z,2.85
2023-01-23T16:00:24.805Z,2.35
2023-01-23T16:05:27.883Z,1.80
2023-01-23T16:08:01.264Z,2.33
2023-01-23T16:10:32.441Z,1.67
2023-01-23T16:13:00.835Z,0.98
2023-01-23T16:15:32.976Z,1.67
2023-01-23T16:18:03.117Z,1.08
2023-01-23T16:20:35.595Z,1.58
2023-01-23T16:23:15.145Z,1.63
2023-01-23T16:25:46.167Z,1.92
2023-01-23T16:28:17.202Z,1.63
2023-01-23T16:30:45.715Z,1.38
2023-01-23T16:33:14.442Z,1.73
2023-01-23T16:35:44.000Z,1.70
2023-01-23T16:38:21.670Z,1.17
2023-01-23T16:40:53.413Z,1.38
2023-01-23T16:43:23.168Z,1.75
2023-01-23T16:45:56.124Z,1.35
2023-01-23T16:48:27.471Z,1.60
2023-01-23T16:51:00.962Z,1.50
2023-01-23T16:56:01.886Z,1.45
2023-01-23T16:58:34.047Z,1.73
2023-01-23T17:01:04.973Z,1.45
2023-01-23T17:03:40.795Z,1.70
2023-01-23T17:06:14.770Z,1.67
2023-01-23T17:08:44.719Z,1.90
2023-01-23T17:11:20.120Z,1.70
2023-01-23T17:13:49.111Z,2.20
2023-01-23T17:16:27.081Z,1.20
2023-01-23T17:18:58.499Z,2.05
2023-01-23T17:21:32.591Z,1.60
2023-01-23T17:24:03.134Z,1.92
2023-01-23T17:26:31.581Z,2.00
2023-01-23T17:29:00.076Z,1.80
2023-01-23T17:31:32.686Z,1.90
2023-01-23T17:34:03.643Z,2.58
2023-01-23T17:36:32.466Z,2.38
2023-01-23T17:39:02.620Z,2.53
2023-01-23T17:41:32.408Z,2.15
2023-01-23T17:44:01.483Z,16.27
2023-01-23T17:46:32.718Z,67.57
2023-01-23T17:49:01.511Z,54.97
2023-01-23T17:51:29.789Z,47.95
2023-01-23T17:53:59.043Z,22.23
2023-01-23T17:56:29.184Z,24.95
2023-01-23T17:58:57.465Z,10.10
2023-01-23T18:01:26.975Z,13.02
2023-01-23T18:03:55.994Z,12.13
2023-01-23T18:06:24.334Z,12.00
2023-01-23T18:08:52.700Z,12.43
2023-01-23T18:11:22.762Z,7.55
2023-01-23T18:14:15.763Z,5.70
2023-01-23T18:19:18.522Z,4.53
2023-01-23T18:24:24.410Z,4.32
2023-01-23T18:26:59.002Z,4.43
2023-01-23T18:29:44.661Z,4.10
2023-01-23T18:32:38.996Z,4.78
2023-01-23T18:35:20.133Z,3.22
2023-01-23T18:37:56.600Z,4.97
2023-01-23T18:40:30.441Z,3.80
2023-01-23T18:43:10.473Z,2.42
2023-01-23T18:45:40.812Z,3.53
2023-01-23T18:48:24.617Z,4.25
2023-01-23T18:51:08.422Z,3.70
2023-01-23T18:53:47.368Z,61.60
2023-01-23T18:56:27.516Z,78.03
2023-01-23T18:59:14.377Z,87.38
2023-01-23T19:01:53.415Z,52.55
2023-01-23T19:04:31.596Z,10.52
2023-01-23T19:07:00.407Z,7.03
2023-01-23T19:09:33.223Z,3.72
2023-01-23T19:12:24.912Z,4.63
2023-01-23T19:15:08.462Z,3.85
2023-01-23T19:17:49.079Z,3.92
2023-01-23T19:20:33.003Z,3.17
2023-01-23T19:23:13.630Z,4.32
2023-01-23T19:25:45.460Z,3.88
2023-01-23T19:28:14.307Z,4.00
2023-01-23T19:30:43.546Z,4.47
2023-01-23T19:33:17.067Z,3.67
2023-01-23T19:35:45.566Z,4.10
2023-01-23T19:38:15.084Z,3.53
2023-01-23T19:40:43.855Z,4.07
2023-01-23T19:43:16.924Z,3.17
2023-01-23T19:45:45.689Z,4.10
2023-01-23T19:48:15.449Z,3.92
2023-01-23T19:50:44.227Z,4.13
2023-01-23T19:53:14.540Z,3.95
2023-01-23T19:55:44.695Z,4.63
2023-01-23T19:58:13.038Z,4.28
2023-01-23T20:00:41.361Z,4.13
2023-01-23T20:03:13.944Z,3.72
2023-01-23T20:05:43.709Z,3.97
2023-01-23T20:08:12.020Z,5.57
2023-01-23T20:10:40.465Z,3.95
2023-01-23T20:13:12.269Z,4.15
2023-01-23T20:15:40.905Z,4.50
2023-01-23T20:18:11.126Z,4.22
2023-01-23T20:20:39.440Z,4.88
2023-01-23T20:23:09.081Z,5.70
2023-01-23T20:25:37.366Z,5.97
2023-01-23T20:28:06.067Z,5.45
2023-01-23T20:30:34.547Z,5.65
2023-01-23T20:33:05.406Z,5.45
2023-01-23T20:35:33.694Z,6.50
2023-01-23T20:38:02.219Z,6.03
2023-01-23T20:40:31.858Z,7.25
2023-01-23T20:43:00.245Z,7.50
2023-01-23T20:45:28.526Z,6.78
2023-01-23T20:47:58.051Z,5.55
2023-01-23T20:50:26.460Z,5.60
2023-01-23T20:53:12.308Z,5.47
2023-01-23T20:55:42.019Z,9.43
2023-01-23T20:58:27.911Z,9.40
2023-01-23T21:00:56.221Z,6.45
2023-01-23T21:03:24.596Z,6.07
2023-01-23T21:05:53.163Z,6.45
2023-01-23T21:08:21.507Z,6.95
2023-01-23T21:10:52.653Z,6.38
2023-01-23T21:13:24.472Z,6.65
2023-01-23T21:15:59.536Z,6.50
2023-01-23T21:18:27.844Z,6.28
2023-01-23T21:20:56.127Z,6.53
2023-01-23T21:23:24.461Z,7.20
2023-01-23T21:25:54.159Z,7.63
2023-01-23T21:28:22.473Z,7.07
2023-01-23T21:30:50.827Z,6.35
2023-01-23T21:33:19.160Z,6.72
2023-01-23T21:35:49.678Z,6.28
2023-01-23T21:38:18.122Z,6.35
2023-01-23T21:40:46.523Z,6.75
2023-01-23T21:43:16.426Z,6.95
2023-01-23T21:45:44.693Z,7.38
2023-01-23T21:48:13.032Z,7.40
2023-01-23T21:50:42.380Z,7.00
2023-01-23T21:53:11.526Z,7.45
2023-01-23T21:55:40.010Z,7.80
2023-01-23T21:58:08.286Z,5.95
2023-01-23T22:00:55.094Z,8.70
2023-01-23T22:03:23.486Z,9.32
2023-01-23T22:05:51.818Z,10.10
2023-01-23T22:08:20.178Z,7.30
2023-01-23T22:10:48.480Z,7.43
2023-01-23T22:13:16.838Z,8.95
2023-01-23T22:15:46.617Z,5.85
2023-01-23T22:18:14.966Z,5.95
2023-01-23T22:20:43.262Z,7.45
2023-01-23T22:23:11.647Z,7.32
2023-01-23T22:25:39.999Z,7.85
2023-01-23T22:28:08.541Z,7.57
2023-01-23T22:30:36.799Z,10.52
2023-01-23T22:33:06.484Z,7.45
2023-01-23T22:35:38.940Z,8.02
2023-01-23T22:38:07.395Z,7.28
2023-01-23T22:40:35.704Z,9.98
2023-01-23T22:43:04.689Z,9.30
2023-01-23T22:45:33.073Z,10.63
2023-01-23T22:48:01.541Z,7.72
2023-01-23T22:50:31.404Z,7.15
2023-01-23T22:52:59.703Z,7.22
2023-01-23T22:55:28.087Z,8.45
2023-01-23T22:57:56.496Z,7.15
2023-01-23T23:00:24.853Z,8.82
2023-01-23T23:02:53.206Z,6.00
2023-01-23T23:05:21.719Z,7.25
2023-01-23T23:07:51.648Z,8.40
2023-01-23T23:10:20.329Z,7.40
2023-01-23T23:12:48.676Z,6.50
2023-01-23T23:15:17.197Z,5.03
2023-01-23T23:17:45.613Z,6.57
2023-01-23T23:20:14.705Z,5.80
2023-01-23T23:22:44.029Z,6.70
2023-01-23T23:25:13.807Z,11.18
2023-01-23T23:27:42.133Z,7.22
2023-01-23T23:30:11.496Z,7.78
2023-01-23T23:32:40.205Z,7.55
2023-01-23T23:35:10.036Z,7.05
2023-01-23T23:37:38.315Z,6.20
2023-01-23T23:40:07.762Z,5.78
2023-01-23T23:42:37.493Z,6.40
2023-01-23T23:45:06.883Z,6.57
2023-01-23T23:47:35.236Z,6.07
2023-01-23T23:50:03.565Z,6.28
2023-01-23T23:52:31.870Z,7.53
2023-01-23T23:55:00.276Z,6.72
2023-01-23T23:57:28.600Z,15.13
2023-01-23T23:59:58.362Z,5.78
